Time;durP1;ratioP1;P1;durP2;ratioP2;P2;SDS_P1;SDS_P2;PMS_P1;PMS_P2;Temp;Humidity;BMP_temperature;BMP_pressure;BME280_temperature;BME280_humidity;BME280_pressure;Samples;Min_cycle;Max_cycle;Signal;HPM_P1;HPM_P2
2023/09/28 00:03:04;;;;;;;12.55;8.10;;;;;;;;;;5095283;28;20036;-69
2023/09/28 00:05:30;;;;;;;9.18;7.60;;;;;;;;;;5094870;28;20030;-69
2023/09/28 00:07:55;;;;;;;10.05;8.38;;;;;;;;;;5095522;28;20369;-68
2023/09/28 00:10:21;;;;;;;8.25;7.45;;;;;;;;;;5095199;28;20024;-60
2023/09/28 00:12:49;;;;;;;9.90;7.90;;;;;;;;;;5095250;28;20028;-61
2023/09/28 00:15:15;;;;;;;8.85;7.65;;;;;;;;;;5094868;28;20086;-62
2023/09/28 00:17:40;;;;;;;9.38;7.63;;;;;;;;;;5076903;28;20028;-61
2023/09/28 00:20:17;;;;;;;12.10;9.05;;;;;;;;;;5094674;28;20036;-61
2023/09/28 00:22:46;;;;;;;9.30;7.78;;;;;;;;;;5094883;28;20474;-60
2023/09/28 00:25:12;;;;;;;9.65;7.63;;;;;;;;;;5095097;28;20020;-60
2023/09/28 00:27:38;;;;;;;11.00;7.60;;;;;;;;;;5094704;28;20089;-60
2023/09/28 00:30:05;;;;;;;10.07;6.88;;;;;;;;;;5094813;28;20032;-60
2023/09/28 00:32:31;;;;;;;10.98;7.43;;;;;;;;;;5094569;28;20055;-60
2023/09/28 00:34:57;;;;;;;8.05;7.20;;;;;;;;;;5076145;28;20123;-60
2023/09/28 00:37:22;;;;;;;7.97;7.20;;;;;;;;;;5094741;28;20126;-60
2023/09/28 00:39:49;;;;;;;9.40;7.38;;;;;;;;;;5094672;28;20024;-60
2023/09/28 00:42:16;;;;;;;8.80;7.10;;;;;;;;;;5094573;28;20073;-60
2023/09/28 00:44:44;;;;;;;9.52;7.38;;;;;;;;;;5092964;28;20024;-67
2023/09/28 00:47:10;;;;;;;8.55;7.28;;;;;;;;;;5058768;28;20111;-68
2023/09/28 00:49:36;;;;;;;7.63;6.38;;;;;;;;;;5092833;28;20077;-68
2023/09/28 00:52:02;;;;;;;7.22;6.28;;;;;;;;;;5094538;28;20028;-61
2023/09/28 00:54:29;;;;;;;7.90;6.47;;;;;;;;;;5059354;28;20470;-60
2023/09/28 00:56:54;;;;;;;12.27;7.40;;;;;;;;;;5076420;28;20016;-60
2023/09/28 00:59:21;;;;;;;9.15;7.15;;;;;;;;;;5076482;28;20031;-60
2023/09/28 01:01:47;;;;;;;10.55;7.20;;;;;;;;;;5076143;28;20450;-60
2023/09/28 01:04:12;;;;;;;7.68;6.30;;;;;;;;;;5076511;28;20232;-60
2023/09/28 01:06:39;;;;;;;8.52;7.32;;;;;;;;;;5094238;28;20068;-60
2023/09/28 01:09:08;;;;;;;10.13;7.78;;;;;;;;;;5094244;28;20414;-60
2023/09/28 01:11:34;;;;;;;9.13;8.20;;;;;;;;;;5093204;28;20043;-60
2023/09/28 01:14:01;;;;;;;14.80;8.38;;;;;;;;;;5094182;28;20036;-60
2023/09/28 01:16:26;;;;;;;8.57;7.63;;;;;;;;;;5093075;28;20438;-60
2023/09/28 01:18:51;;;;;;;10.40;7.63;;;;;;;;;;5093818;28;20067;-60
2023/09/28 01:21:18;;;;;;;9.82;8.23;;;;;;;;;;5093875;28;20020;-60
2023/09/28 01:23:45;;;;;;;9.18;7.63;;;;;;;;;;5094218;28;20032;-59
2023/09/28 01:26:10;;;;;;;9.85;7.47;;;;;;;;;;5094241;28;20016;-59
2023/09/28 01:28:36;;;;;;;9.77;7.68;;;;;;;;;;5094231;28;20385;-59
2023/09/28 01:31:01;;;;;;;7.53;6.80;;;;;;;;;;5092632;28;20024;-60
2023/09/28 01:33:27;;;;;;;8.48;7.68;;;;;;;;;;5093883;28;20051;-59
2023/09/28 01:35:53;;;;;;;7.78;6.72;;;;;;;;;;5075464;28;20039;-59
2023/09/28 01:38:25;;;;;;;8.63;6.95;;;;;;;;;;5094020;28;20034;-59
2023/09/28 01:40:50;;;;;;;8.75;7.28;;;;;;;;;;5094044;28;20059;-67
2023/09/28 01:43:19;;;;;;;7.95;7.13;;;;;;;;;;5059192;28;20458;-67
2023/09/28 01:45:45;;;;;;;9.95;7.53;;;;;;;;;;5094135;28;20021;-67
2023/09/28 01:48:10;;;;;;;9.13;7.03;;;;;;;;;;5094071;28;20065;-67
2023/09/28 01:50:36;;;;;;;7.88;7.07;;;;;;;;;;5092362;28;20028;-68
2023/09/28 01:53:02;;;;;;;10.90;7.15;;;;;;;;;;5075842;28;20039;-70
2023/09/28 01:55:47;;;;;;;11.70;6.75;;;;;;;;;;5075758;28;20028;-69
2023/09/28 01:58:12;;;;;;;7.38;6.68;;;;;;;;;;5092370;28;20118;-68
2023/09/28 02:00:38;;;;;;;8.63;7.00;;;;;;;;;;5092429;28;20111;-68
2023/09/28 02:03:04;;;;;;;9.45;7.05;;;;;;;;;;5075382;28;20347;-68
2023/09/28 02:05:32;;;;;;;8.15;6.35;;;;;;;;;;5093681;28;20464;-68
2023/09/28 02:07:58;;;;;;;7.28;5.88;;;;;;;;;;5093543;28;20023;-68
2023/09/28 02:10:24;;;;;;;7.15;6.18;;;;;;;;;;5075207;28;20021;-68
2023/09/28 02:12:50;;;;;;;7.03;6.30;;;;;;;;;;5093557;28;20126;-69
2023/09/28 02:15:16;;;;;;;8.10;7.30;;;;;;;;;;5075733;28;20024;-69
2023/09/28 02:17:45;;;;;;;7.40;6.70;;;;;;;;;;5075475;28;20115;-67
2023/09/28 02:20:11;;;;;;;7.68;6.07;;;;;;;;;;5093463;28;20035;-67
2023/09/28 02:22:43;;;;;;;6.93;6.30;;;;;;;;;;5093859;28;20426;-67
2023/09/28 02:25:22;;;;;;;7.88;5.97;;;;;;;;;;5093511;28;20024;-67
2023/09/28 02:27:49;;;;;;;8.07;7.05;;;;;;;;;;5075371;28;20028;-67
2023/09/28 02:30:17;;;;;;;7.97;6.50;;;;;;;;;;5097386;28;20032;-68
2023/09/28 02:32:43;;;;;;;9.55;6.18;;;;;;;;;;5094818;28;20060;-67
2023/09/28 02:35:11;;;;;;;6.88;6.20;;;;;;;;;;5095898;28;20035;-68
2023/09/28 02:37:37;;;;;;;8.48;6.63;;;;;;;;;;5095852;28;20050;-69
2023/09/28 02:40:06;;;;;;;9.07;7.45;;;;;;;;;;5097075;28;20393;-68
2023/09/28 02:42:33;;;;;;;6.75;6.15;;;;;;;;;;5096582;28;20024;-68
2023/09/28 02:44:59;;;;;;;8.02;6.60;;;;;;;;;;5078610;28;20441;-68
2023/09/28 02:47:26;;;;;;;8.25;7.32;;;;;;;;;;5061760;28;20060;-68
2023/09/28 02:49:52;;;;;;;12.57;8.30;;;;;;;;;;5078734;28;20035;-68
2023/09/28 02:52:18;;;;;;;11.82;7.88;;;;;;;;;;5078440;28;20032;-68
2023/09/28 02:54:44;;;;;;;6.85;6.22;;;;;;;;;;5096512;28;20032;-68
2023/09/28 02:57:11;;;;;;;7.97;6.45;;;;;;;;;;5096386;28;20031;-68
2023/09/28 02:59:36;;;;;;;8.52;6.85;;;;;;;;;;5096549;28;20019;-68
2023/09/28 03:02:03;;;;;;;9.48;6.75;;;;;;;;;;5078086;28;20399;-68
2023/09/28 03:04:32;;;;;;;7.68;6.30;;;;;;;;;;5060800;28;20024;-68
2023/09/28 03:06:58;;;;;;;9.15;6.78;;;;;;;;;;5095956;28;20031;-67
2023/09/28 03:09:25;;;;;;;7.78;6.28;;;;;;;;;;5096098;28;20024;-67
2023/09/28 03:12:01;;;;;;;13.15;7.07;;;;;;;;;;5096202;28;20081;-66
2023/09/28 03:14:26;;;;;;;8.70;6.50;;;;;;;;;;5096346;28;20032;-66
2023/09/28 03:16:53;;;;;;;8.57;7.57;;;;;;;;;;5096170;28;20016;-67
2023/09/28 03:19:18;;;;;;;7.40;5.93;;;;;;;;;;5096419;28;20359;-67
2023/09/28 03:21:44;;;;;;;10.70;7.82;;;;;;;;;;5095966;28;20034;-67
2023/09/28 03:24:10;;;;;;;8.90;7.40;;;;;;;;;;5078092;28;20023;-67
2023/09/28 03:26:35;;;;;;;9.75;6.47;;;;;;;;;;5096051;28;20032;-66
2023/09/28 03:29:00;;;;;;;7.45;6.65;;;;;;;;;;5096014;28;20032;-66
2023/09/28 03:31:27;;;;;;;8.63;7.43;;;;;;;;;;5073971;28;20044;-66
2023/09/28 03:33:55;;;;;;;7.78;6.63;;;;;;;;;;5093845;28;20028;-68
2023/09/28 03:36:21;;;;;;;8.57;7.07;;;;;;;;;;5095875;28;20036;-69
2023/09/28 03:38:47;;;;;;;9.90;7.03;;;;;;;;;;5095981;28;20111;-69
2023/09/28 03:41:13;;;;;;;9.82;6.82;;;;;;;;;;5076880;28;20489;-67
2023/09/28 03:43:38;;;;;;;9.65;6.95;;;;;;;;;;5095530;28;20028;-66
2023/09/28 03:46:04;;;;;;;8.05;7.25;;;;;;;;;;5095760;28;20028;-59
2023/09/28 03:48:30;;;;;;;7.57;6.78;;;;;;;;;;5095581;28;20105;-58
2023/09/28 03:50:57;;;;;;;10.70;7.45;;;;;;;;;;5077343;28;20103;-65
2023/09/28 03:53:24;;;;;;;8.85;7.65;;;;;;;;;;5077641;28;20525;-65
2023/09/28 03:55:49;;;;;;;11.70;8.73;;;;;;;;;;5075488;28;20381;-58
2023/09/28 03:58:17;;;;;;;9.63;8.13;;;;;;;;;;5082583;28;20036;-58
2023/09/28 04:00:44;;;;;;;10.50;8.70;;;;;;;;;;5069382;28;20032;-58
2023/09/28 04:03:09;;;;;;;12.85;9.38;;;;;;;;;;5057369;28;20371;-58
2023/09/28 04:05:35;;;;;;;11.27;8.95;;;;;;;;;;5074699;28;20032;-58
2023/09/28 04:08:00;;;;;;;11.95;9.05;;;;;;;;;;5073843;28;20032;-60
2023/09/28 04:10:26;;;;;;;11.40;8.40;;;;;;;;;;5074639;28;20112;-66
2023/09/28 04:12:52;;;;;;;8.80;7.50;;;;;;;;;;5074617;28;20457;-60
2023/09/28 04:15:18;;;;;;;9.77;7.35;;;;;;;;;;5073147;28;20482;-60
2023/09/28 04:17:43;;;;;;;10.18;7.22;;;;;;;;;;5074813;28;20042;-60
2023/09/28 04:20:09;;;;;;;8.48;7.28;;;;;;;;;;5074308;28;20026;-60
2023/09/28 04:22:35;;;;;;;9.63;7.55;;;;;;;;;;5074803;28;20052;-60
2023/09/28 04:25:01;;;;;;;10.25;7.60;;;;;;;;;;5074573;28;20060;-59
2023/09/28 04:27:26;;;;;;;8.90;7.28;;;;;;;;;;5074597;28;20104;-60
2023/09/28 04:29:52;;;;;;;12.73;7.43;;;;;;;;;;5074358;28;20060;-60
2023/09/28 04:32:17;;;;;;;10.63;7.43;;;;;;;;;;5073613;28;20090;-61
2023/09/28 04:34:48;;;;;;;11.48;8.82;;;;;;;;;;5074295;28;20070;-60
2023/09/28 04:37:13;;;;;;;11.13;7.90;;;;;;;;;;5074560;28;20033;-60
2023/09/28 04:39:39;;;;;;;9.32;8.32;;;;;;;;;;5073825;28;20031;-60
2023/09/28 04:42:04;;;;;;;10.60;7.30;;;;;;;;;;5074015;28;20519;-60
2023/09/28 04:44:30;;;;;;;8.88;6.90;;;;;;;;;;5074340;28;20411;-60
2023/09/28 04:46:55;;;;;;;10.23;7.45;;;;;;;;;;5091485;28;20039;-60
2023/09/28 04:49:21;;;;;;;8.00;7.18;;;;;;;;;;5093999;28;20145;-61
2023/09/28 04:51:47;;;;;;;9.88;8.25;;;;;;;;;;5093747;28;20474;-60
2023/09/28 04:54:14;;;;;;;9.23;7.88;;;;;;;;;;5093941;28;20035;-60
2023/09/28 04:56:40;;;;;;;12.55;7.70;;;;;;;;;;5093900;28;20035;-64
2023/09/28 04:59:08;;;;;;;8.65;7.47;;;;;;;;;;5094514;28;20050;-68
2023/09/28 05:01:33;;;;;;;9.13;7.80;;;;;;;;;;5093541;28;20020;-66
2023/09/28 05:04:00;;;;;;;8.70;7.80;;;;;;;;;;5093898;28;20112;-67
2023/09/28 05:06:25;;;;;;;10.48;7.85;;;;;;;;;;5094117;28;20036;-66
2023/09/28 05:08:51;;;;;;;11.55;8.70;;;;;;;;;;5094031;28;20082;-67
2023/09/28 05:11:16;;;;;;;10.88;8.40;;;;;;;;;;5094190;28;20028;-66
2023/09/28 05:13:42;;;;;;;12.75;9.18;;;;;;;;;;5094214;28;20031;-66
2023/09/28 05:16:07;;;;;;;12.43;8.65;;;;;;;;;;5093327;28;20510;-66
2023/09/28 05:18:34;;;;;;;14.98;9.05;;;;;;;;;;5092820;28;20111;-66
2023/09/28 05:21:00;;;;;;;12.38;8.82;;;;;;;;;;5093201;28;20024;-66
2023/09/28 05:23:25;;;;;;;9.30;7.95;;;;;;;;;;5093327;28;20082;-66
2023/09/28 05:25:51;;;;;;;9.73;8.18;;;;;;;;;;5074881;28;20031;-67
2023/09/28 05:28:16;;;;;;;14.40;8.10;;;;;;;;;;5093106;28;20013;-66
2023/09/28 05:30:42;;;;;;;10.82;8.52;;;;;;;;;;5093253;28;20032;-67
2023/09/28 05:33:07;;;;;;;10.82;8.57;;;;;;;;;;5093064;28;20047;-67
2023/09/28 05:35:33;;;;;;;9.48;7.75;;;;;;;;;;5093113;28;20482;-58
2023/09/28 05:37:58;;;;;;;9.73;8.57;;;;;;;;;;5074812;28;20026;-67
2023/09/28 05:40:27;;;;;;;12.73;8.77;;;;;;;;;;5093215;28;20028;-58
2023/09/28 05:42:54;;;;;;;11.93;8.32;;;;;;;;;;5094202;28;20024;-67
2023/09/28 05:45:20;;;;;;;11.93;8.63;;;;;;;;;;5075407;28;20463;-68
2023/09/28 05:47:46;;;;;;;13.57;7.82;;;;;;;;;;5092308;28;20028;-68
2023/09/28 05:50:11;;;;;;;10.27;7.65;;;;;;;;;;5093490;28;20351;-68
2023/09/28 05:52:37;;;;;;;11.50;8.00;;;;;;;;;;5092710;28;20039;-68
2023/09/28 05:55:03;;;;;;;11.50;7.78;;;;;;;;;;5075778;28;20066;-68
2023/09/28 05:57:30;;;;;;;10.68;7.00;;;;;;;;;;5105083;22;20079;-60
2023/09/28 05:59:55;;;;;;;9.10;7.97;;;;;;;;;;5133942;28;20057;-60
2023/09/28 06:02:21;;;;;;;9.23;8.23;;;;;;;;;;5133633;27;20522;-60
2023/09/28 06:04:46;;;;;;;10.13;7.47;;;;;;;;;;5135005;27;20676;-60
2023/09/28 06:07:12;;;;;;;10.43;8.20;;;;;;;;;;5136127;27;20030;-60
2023/09/28 06:09:37;;;;;;;11.18;7.80;;;;;;;;;;5135596;27;20018;-60
2023/09/28 06:12:03;;;;;;;10.38;7.35;;;;;;;;;;5136657;27;20042;-60
2023/09/28 06:14:28;;;;;;;8.02;7.22;;;;;;;;;;5136262;27;20031;-60
2023/09/28 06:16:53;;;;;;;9.00;7.50;;;;;;;;;;5135806;27;20045;-60
2023/09/28 06:19:19;;;;;;;9.00;7.45;;;;;;;;;;5137359;27;20027;-60
2023/09/28 06:21:45;;;;;;;8.57;7.38;;;;;;;;;;5137862;27;20391;-60
2023/09/28 06:24:11;;;;;;;12.52;7.35;;;;;;;;;;5137830;27;20373;-60
2023/09/28 06:26:37;;;;;;;10.40;8.15;;;;;;;;;;5138090;27;20031;-59
2023/09/28 06:29:03;;;;;;;9.70;8.07;;;;;;;;;;5137783;27;20031;-60
2023/09/28 06:31:29;;;;;;;9.50;7.85;;;;;;;;;;5138019;27;20027;-60
2023/09/28 06:33:54;;;;;;;11.98;7.78;;;;;;;;;;5119371;27;20031;-60
2023/09/28 06:36:20;;;;;;;8.88;7.78;;;;;;;;;;5137637;27;20015;-60
2023/09/28 06:38:47;;;;;;;9.68;7.65;;;;;;;;;;5137569;27;20034;-60
2023/09/28 06:41:13;;;;;;;10.27;7.90;;;;;;;;;;5137762;27;20480;-60
2023/09/28 06:43:39;;;;;;;9.40;8.02;;;;;;;;;;5137519;27;20028;-60
2023/09/28 06:46:04;;;;;;;9.60;8.40;;;;;;;;;;5137695;27;20027;-59
2023/09/28 06:48:30;;;;;;;9.32;8.18;;;;;;;;;;5137442;27;20452;-60
2023/09/28 06:50:56;;;;;;;9.20;6.88;;;;;;;;;;5137354;27;20023;-59
2023/09/28 06:53:22;;;;;;;8.43;7.47;;;;;;;;;;5119251;27;20037;-59
2023/09/28 06:55:48;;;;;;;8.88;7.30;;;;;;;;;;5137559;27;20114;-60
2023/09/28 06:58:14;;;;;;;9.68;6.72;;;;;;;;;;5137132;27;20078;-59
2023/09/28 07:00:40;;;;;;;8.07;7.07;;;;;;;;;;5118789;27;20473;-59
2023/09/28 07:03:05;;;;;;;7.47;6.78;;;;;;;;;;5137431;27;20198;-59
2023/09/28 07:05:33;;;;;;;7.22;6.53;;;;;;;;;;5137651;27;20084;-59
2023/09/28 07:07:59;;;;;;;7.72;6.90;;;;;;;;;;5137043;27;20027;-59
2023/09/28 07:10:25;;;;;;;9.85;7.05;;;;;;;;;;5118602;27;20442;-59
2023/09/28 07:12:50;;;;;;;7.25;6.55;;;;;;;;;;5137261;27;20030;-60
2023/09/28 07:15:16;;;;;;;10.02;6.68;;;;;;;;;;5118586;27;20483;-59
2023/09/28 07:17:42;;;;;;;8.43;6.07;;;;;;;;;;5137137;27;20117;-59
2023/09/28 07:20:07;;;;;;;8.70;6.32;;;;;;;;;;5137043;27;20471;-59
2023/09/28 07:22:34;;;;;;;8.60;6.28;;;;;;;;;;5118622;27;20030;-59
2023/09/28 07:24:59;;;;;;;9.05;5.97;;;;;;;;;;5136973;27;20019;-59
2023/09/28 07:27:31;;;;;;;8.32;6.07;;;;;;;;;;5136665;27;20449;-59
2023/09/28 07:29:56;;;;;;;8.68;6.35;;;;;;;;;;5136591;27;20030;-59
2023/09/28 07:32:22;;;;;;;7.63;6.18;;;;;;;;;;5136855;27;20012;-59
2023/09/28 07:34:48;;;;;;;9.45;6.10;;;;;;;;;;5137051;27;20015;-59
2023/09/28 07:37:14;;;;;;;6.88;6.28;;;;;;;;;;5136470;27;20019;-59
2023/09/28 07:39:40;;;;;;;7.15;6.43;;;;;;;;;;5136334;27;20073;-60
2023/09/28 07:42:07;;;;;;;13.43;6.38;;;;;;;;;;5137057;27;20476;-59
2023/09/28 07:44:32;;;;;;;8.70;6.35;;;;;;;;;;5136255;27;20088;-59
2023/09/28 07:46:59;;;;;;;8.68;6.43;;;;;;;;;;5136259;27;20453;-60
2023/09/28 07:49:24;;;;;;;11.60;6.75;;;;;;;;;;5136241;27;20023;-60
2023/09/28 07:51:49;;;;;;;7.80;6.13;;;;;;;;;;5136472;27;20384;-59
2023/09/28 07:54:15;;;;;;;7.88;6.75;;;;;;;;;;5135994;27;20030;-59
2023/09/28 07:56:40;;;;;;;10.25;6.50;;;;;;;;;;5135904;27;20034;-60
2023/09/28 07:59:06;;;;;;;6.53;5.90;;;;;;;;;;5136585;27;20114;-59
2023/09/28 08:01:36;;;;;;;8.85;6.30;;;;;;;;;;5117941;27;20092;-60
2023/09/28 08:04:02;;;;;;;10.18;6.80;;;;;;;;;;5136227;27;20023;-59
2023/09/28 08:06:27;;;;;;;9.10;6.28;;;;;;;;;;5117859;27;20063;-59
2023/09/28 08:08:53;;;;;;;7.15;6.38;;;;;;;;;;5136097;27;20080;-59
2023/09/28 08:11:18;;;;;;;7.90;6.65;;;;;;;;;;5135782;27;20477;-59
2023/09/28 08:13:44;;;;;;;9.52;6.68;;;;;;;;;;5135700;27;20034;-59
2023/09/28 08:16:09;;;;;;;8.27;6.80;;;;;;;;;;5136235;27;20052;-59
2023/09/28 08:18:35;;;;;;;8.70;6.68;;;;;;;;;;5135647;27;20461;-59
2023/09/28 08:21:00;;;;;;;7.10;5.50;;;;;;;;;;5135496;27;20083;-59
2023/09/28 08:23:26;;;;;;;10.98;6.50;;;;;;;;;;5136082;27;20065;-60
2023/09/28 08:25:51;;;;;;;9.48;6.22;;;;;;;;;;5135055;27;20027;-59
2023/09/28 08:28:17;;;;;;;10.57;6.25;;;;;;;;;;5135430;27;20036;-59
2023/09/28 08:30:42;;;;;;;11.68;6.30;;;;;;;;;;5135967;27;20076;-59
2023/09/28 08:33:08;;;;;;;8.48;6.68;;;;;;;;;;5135354;27;20122;-59
2023/09/28 08:35:34;;;;;;;11.45;6.63;;;;;;;;;;5135237;27;20114;-59
2023/09/28 08:38:00;;;;;;;8.05;5.68;;;;;;;;;;5135606;27;20073;-59
2023/09/28 08:40:26;;;;;;;8.93;5.20;;;;;;;;;;5135167;27;20469;-60
2023/09/28 08:42:55;;;;;;;9.10;5.38;;;;;;;;;;5135246;27;20031;-59
2023/09/28 08:45:20;;;;;;;6.18;4.28;;;;;;;;;;5135780;27;20027;-59
2023/09/28 08:47:49;;;;;;;6.05;4.30;;;;;;;;;;5141386;22;20052;-67
2023/09/28 08:50:25;;;;;;;7.68;4.82;;;;;;;;;;5070883;22;20055;31
2023/09/28 08:52:51;;;;;;;5.97;5.40;;;;;;;;;;5072282;28;20044;-68
2023/09/28 08:55:16;;;;;;;5.13;4.63;;;;;;;;;;5073857;28;20386;-68
2023/09/28 08:57:43;;;;;;;6.07;4.57;;;;;;;;;;5074158;28;20459;-68
2023/09/28 09:00:13;;;;;;;4.57;4.18;;;;;;;;;;5073738;28;20038;-68
2023/09/28 09:02:38;;;;;;;;;;;;;;;;;;5073367;28;20029;-68
2023/09/28 09:05:06;;;;;;;4.20;3.80;;;;;;;;;;5073776;28;19935;-68
2023/09/28 09:07:32;;;;;;;5.10;3.22;;;;;;;;;;5074059;28;20259;-68
2023/09/28 09:09:58;;;;;;;6.78;3.47;;;;;;;;;;5073685;28;20450;-68
2023/09/28 09:12:24;;;;;;;4.65;3.40;;;;;;;;;;5073684;28;20029;-67
2023/09/28 09:14:50;;;;;;;3.83;3.42;;;;;;;;;;5074213;28;20025;-67
2023/09/28 09:17:15;;;;;;;5.15;3.25;;;;;;;;;;5073656;28;20036;-68
2023/09/28 09:19:41;;;;;;;5.25;3.47;;;;;;;;;;5055771;28;20069;-68
2023/09/28 09:22:08;;;;;;;6.00;4.70;;;;;;;;;;5073831;28;20462;-68
2023/09/28 09:24:33;;;;;;;5.85;3.90;;;;;;;;;;5073613;28;20024;-68
2023/09/28 09:26:59;;;;;;;5.03;4.07;;;;;;;;;;5073564;28;20366;-68
2023/09/28 09:29:25;;;;;;;5.00;4.13;;;;;;;;;;5055947;28;20117;-68
2023/09/28 09:31:51;;;;;;;5.65;4.03;;;;;;;;;;5074033;28;20052;-68
2023/09/28 09:34:17;;;;;;;8.55;3.80;;;;;;;;;;5073761;28;20482;-68
2023/09/28 09:36:48;;;;;;;5.43;3.35;;;;;;;;;;5073430;28;20020;-68
2023/09/28 09:39:21;;;;;;;3.45;3.00;;;;;;;;;;5075987;28;20394;-68
2023/09/28 09:41:46;;;;;;;5.97;3.88;;;;;;;;;;5077398;28;20066;-68
2023/09/28 09:44:18;;;;;;;3.53;2.65;;;;;;;;;;5077446;28;20028;-67
2023/09/28 09:46:48;;;;;;;6.53;3.35;;;;;;;;;;5077971;28;20033;-68
2023/09/28 09:49:14;;;;;;;6.47;3.87;;;;;;;;;;5059501;28;20111;-68
2023/09/28 09:51:41;;;;;;;3.40;2.78;;;;;;;;;;5077385;28;20740;-68
2023/09/28 09:54:08;;;;;;;4.30;3.20;;;;;;;;;;5077262;28;20127;-68
2023/09/28 09:56:34;;;;;;;4.07;3.65;;;;;;;;;;5077216;28;20455;-68
2023/09/28 09:59:05;;;;;;;7.68;3.58;;;;;;;;;;5077207;28;20036;-68
2023/09/28 10:01:32;;;;;;;5.50;3.25;;;;;;;;;;5077336;28;20561;-68
2023/09/28 10:03:59;;;;;;;3.67;3.38;;;;;;;;;;5077069;28;20024;-68
2023/09/28 10:06:25;;;;;;;5.80;2.97;;;;;;;;;;5059097;28;20036;-68
2023/09/28 10:08:51;;;;;;;5.05;2.42;;;;;;;;;;5076978;28;20028;-68
2023/09/28 10:11:17;;;;;;;2.85;2.55;;;;;;;;;;5076885;28;20054;-68
2023/09/28 10:13:43;;;;;;;2.78;2.58;;;;;;;;;;5076854;28;20513;-68
2023/09/28 10:16:09;;;;;;;7.32;3.17;;;;;;;;;;5076756;28;20036;-68
2023/09/28 10:18:36;;;;;;;3.53;2.47;;;;;;;;;;5075764;28;20031;-68
2023/09/28 10:21:02;;;;;;;3.90;2.88;;;;;;;;;;5059087;28;20072;-68
2023/09/28 10:23:28;;;;;;;2.65;2.45;;;;;;;;;;5077194;28;20060;-67
2023/09/28 10:25:54;;;;;;;2.60;2.40;;;;;;;;;;5076633;28;20074;-68
2023/09/28 10:28:20;;;;;;;2.63;2.42;;;;;;;;;;5076611;28;20421;-67
2023/09/28 10:30:45;;;;;;;3.33;2.67;;;;;;;;;;5077115;28;20036;-68
2023/09/28 10:33:12;;;;;;;2.60;2.40;;;;;;;;;;5076520;28;20036;-68
2023/09/28 10:35:37;;;;;;;5.28;2.50;;;;;;;;;;5076460;28;20039;-68
2023/09/28 10:38:19;;;;;;;3.00;2.80;;;;;;;;;;5076685;28;20033;-68
2023/09/28 10:40:48;;;;;;;5.88;3.08;;;;;;;;;;5076601;28;20047;-68
2023/09/28 10:43:26;;;;;;;3.72;2.90;;;;;;;;;;5076361;28;20087;-68
2023/09/28 10:45:52;;;;;;;3.00;2.50;;;;;;;;;;5076872;28;20089;-68
2023/09/28 10:48:17;;;;;;;5.03;2.90;;;;;;;;;;5076783;28;20029;-68
2023/09/28 10:50:46;;;;;;;4.65;2.70;;;;;;;;;;5075670;28;20040;-68
2023/09/28 10:53:11;;;;;;;7.53;2.90;;;;;;;;;;5076426;28;20067;-68
2023/09/28 10:55:37;;;;;;;2.75;2.47;;;;;;;;;;5076414;28;20056;-68
2023/09/28 10:58:03;;;;;;;3.80;2.67;;;;;;;;;;5076389;28;20036;-68
2023/09/28 11:00:30;;;;;;;3.72;2.80;;;;;;;;;;5075928;28;20469;-68
2023/09/28 11:02:57;;;;;;;4.53;2.65;;;;;;;;;;5075998;28;20025;-68
2023/09/28 11:05:23;;;;;;;3.72;2.70;;;;;;;;;;5075981;28;20032;-68
2023/09/28 11:07:48;;;;;;;6.40;2.80;;;;;;;;;;5057942;28;20130;-68
2023/09/28 11:10:14;;;;;;;5.70;2.90;;;;;;;;;;5076109;28;20066;-68
2023/09/28 11:12:40;;;;;;;3.65;2.67;;;;;;;;;;5076038;28;20036;-68
2023/09/28 11:15:08;;;;;;;3.53;2.95;;;;;;;;;;5076022;28;20497;-68
2023/09/28 11:17:33;;;;;;;4.18;3.08;;;;;;;;;;5076000;28;20054;-68
2023/09/28 11:19:59;;;;;;;4.43;3.00;;;;;;;;;;5075868;28;20458;-68
2023/09/28 11:22:28;;;;;;;4.75;4.35;;;;;;;;;;5057660;28;20423;-68
2023/09/28 11:24:53;;;;;;;3.63;3.33;;;;;;;;;;5075586;28;20029;-68
2023/09/28 11:27:18;;;;;;;8.85;3.17;;;;;;;;;;5075815;28;20021;-68
2023/09/28 11:29:44;;;;;;;4.13;3.08;;;;;;;;;;5057577;28;20020;-68
2023/09/28 11:32:09;;;;;;;6.80;3.20;;;;;;;;;;5075443;28;20390;-68
2023/09/28 11:34:38;;;;;;;4.45;3.20;;;;;;;;;;5075668;28;20079;-68
2023/09/28 11:37:08;;;;;;;4.97;3.42;;;;;;;;;;5075345;28;20039;-68
2023/09/28 11:39:33;;;;;;;;;;;;;;;;;;5075679;28;20390;-68
2023/09/28 11:41:59;;;;;;;4.23;3.77;;;;;;;;;;5075150;28;19912;-68
2023/09/28 11:44:26;;;;;;;6.05;4.07;;;;;;;;;;5057260;28;20659;-60
2023/09/28 11:46:55;;;;;;;4.15;3.50;;;;;;;;;;5077538;22;20062;-60
2023/09/28 11:49:22;;;;;;;3.33;3.03;;;;;;;;;;5100031;28;20030;-60
2023/09/28 11:51:48;;;;;;;4.93;4.43;;;;;;;;;;5032360;28;20034;-60
2023/09/28 11:54:15;;;;;;;7.80;3.40;;;;;;;;;;5032032;28;20509;-60
2023/09/28 11:56:40;;;;;;;4.57;3.25;;;;;;;;;;5100525;28;20025;-59
2023/09/28 11:59:06;;;;;;;3.85;2.83;;;;;;;;;;5031946;28;20121;-60
2023/09/28 12:01:32;;;;;;;6.45;3.75;;;;;;;;;;5099501;28;20113;-60
2023/09/28 12:03:57;;;;;;;8.65;5.40;;;;;;;;;;5030771;28;20475;-60
2023/09/28 12:06:23;;;;;;;3.97;3.67;;;;;;;;;;5031858;28;20435;-60
2023/09/28 12:08:48;;;;;;;7.97;4.03;;;;;;;;;;5031821;28;20487;-59
2023/09/28 12:11:14;;;;;;;4.50;3.88;;;;;;;;;;5031770;28;20372;-60
2023/09/28 12:13:39;;;;;;;5.38;4.07;;;;;;;;;;5032002;28;20037;-60
2023/09/28 12:16:05;;;;;;;8.63;3.65;;;;;;;;;;5099942;28;20104;-59
2023/09/28 12:18:31;;;;;;;4.13;3.75;;;;;;;;;;5031660;28;20030;-60
2023/09/28 12:20:56;;;;;;;6.05;2.95;;;;;;;;;;5031528;28;20106;-60
2023/09/28 12:23:21;;;;;;;4.32;3.80;;;;;;;;;;5031622;28;20049;-60
2023/09/28 12:25:48;;;;;;;3.22;3.03;;;;;;;;;;5099739;28;20383;-59
2023/09/28 12:28:13;;;;;;;2.67;2.35;;;;;;;;;;5031512;28;20064;-60
2023/09/28 12:30:39;;;;;;;3.60;2.95;;;;;;;;;;5031457;28;20065;-60
2023/09/28 12:33:06;;;;;;;3.10;2.75;;;;;;;;;;5031714;28;20037;-60
2023/09/28 12:35:31;;;;;;;5.25;4.00;;;;;;;;;;5031718;28;20519;-60
2023/09/28 12:37:57;;;;;;;4.82;3.78;;;;;;;;;;5031407;28;20029;-60
2023/09/28 12:40:23;;;;;;;4.85;3.58;;;;;;;;;;5031572;28;20013;-60
2023/09/28 12:42:48;;;;;;;5.03;3.90;;;;;;;;;;5031327;28;20029;-60
2023/09/28 12:45:13;;;;;;;6.18;3.33;;;;;;;;;;5031582;28;20075;-60
2023/09/28 12:47:39;;;;;;;4.63;3.55;;;;;;;;;;5031323;28;20114;-60
2023/09/28 12:50:04;;;;;;;3.58;2.92;;;;;;;;;;5031184;28;20078;-60
2023/09/28 12:52:30;;;;;;;4.22;2.78;;;;;;;;;;5031437;28;20057;-60
2023/09/28 12:54:55;;;;;;;5.07;3.15;;;;;;;;;;5031133;28;20029;-60
2023/09/28 12:57:21;;;;;;;4.03;3.22;;;;;;;;;;5031100;28;20527;-60
2023/09/28 12:59:47;;;;;;;3.15;2.83;;;;;;;;;;5031045;28;20158;-60
2023/09/28 13:02:13;;;;;;;3.35;2.83;;;;;;;;;;5031243;28;20042;-59
2023/09/28 13:04:38;;;;;;;7.60;3.67;;;;;;;;;;5031280;28;20037;-60
2023/09/28 13:07:04;;;;;;;4.35;3.10;;;;;;;;;;5030969;28;20057;-60
2023/09/28 13:09:31;;;;;;;5.28;3.13;;;;;;;;;;5029729;28;20022;-60
2023/09/28 13:11:57;;;;;;;4.20;3.38;;;;;;;;;;5030767;28;20034;-60
2023/09/28 13:14:25;;;;;;;4.07;2.92;;;;;;;;;;5098966;28;20390;-60
2023/09/28 13:16:56;;;;;;;5.65;3.50;;;;;;;;;;5031159;28;20036;-60
2023/09/28 13:19:25;;;;;;;4.05;2.85;;;;;;;;;;5030880;28;20041;-60
2023/09/28 13:21:59;;;;;;;4.03;3.60;;;;;;;;;;5023233;28;20080;-60
2023/09/28 13:24:26;;;;;;;4.78;2.85;;;;;;;;;;5019522;28;20036;-60
2023/09/28 13:26:52;;;;;;;4.45;3.90;;;;;;;;;;5016998;28;20022;-60
2023/09/28 13:29:19;;;;;;;3.38;2.97;;;;;;;;;;5018942;28;20551;-60
2023/09/28 13:31:47;;;;;;;4.05;3.40;;;;;;;;;;5086112;28;20079;-60
2023/09/28 13:34:14;;;;;;;4.97;3.05;;;;;;;;;;5006507;28;20034;-60
2023/09/28 13:36:39;;;;;;;4.65;3.42;;;;;;;;;;5012259;28;20025;-60
2023/09/28 13:39:05;;;;;;;3.22;2.95;;;;;;;;;;5026274;28;20040;-60
2023/09/28 13:41:31;;;;;;;4.40;3.42;;;;;;;;;;5029008;28;20021;-60
2023/09/28 13:43:58;;;;;;;4.00;2.65;;;;;;;;;;5021030;28;20026;-60
2023/09/28 13:46:23;;;;;;;6.43;3.22;;;;;;;;;;5020296;28;20175;-60
2023/09/28 13:48:49;;;;;;;4.28;3.70;;;;;;;;;;5019735;28;20511;-60
2023/09/28 13:51:15;;;;;;;4.47;3.30;;;;;;;;;;5031889;28;20037;-60
2023/09/28 13:53:40;;;;;;;3.65;3.35;;;;;;;;;;5010038;28;20033;-60
2023/09/28 13:56:06;;;;;;;4.30;3.15;;;;;;;;;;5009850;28;20030;-60
2023/09/28 13:58:32;;;;;;;4.93;3.67;;;;;;;;;;5010062;28;20017;-60
2023/09/28 14:00:58;;;;;;;3.58;3.03;;;;;;;;;;5028205;28;20442;-60
2023/09/28 14:03:24;;;;;;;6.32;3.55;;;;;;;;;;5029616;28;20053;-60
2023/09/28 14:05:50;;;;;;;4.03;2.97;;;;;;;;;;5020391;28;20025;-59
2023/09/28 14:08:16;;;;;;;7.18;3.70;;;;;;;;;;5008199;28;20014;-60
2023/09/28 14:10:41;;;;;;;4.85;3.58;;;;;;;;;;5010128;28;20034;-59
2023/09/28 14:13:07;;;;;;;4.18;3.25;;;;;;;;;;5026302;28;20398;-60
2023/09/28 14:15:33;;;;;;;4.22;3.35;;;;;;;;;;5028242;28;20030;-60
2023/09/28 14:17:58;;;;;;;6.20;3.45;;;;;;;;;;5096395;28;20042;-60
2023/09/28 14:20:25;;;;;;;6.93;4.47;;;;;;;;;;5028996;28;20033;-60
2023/09/28 14:22:51;;;;;;;4.07;3.67;;;;;;;;;;5024892;28;20075;-59
2023/09/28 14:25:17;;;;;;;4.93;4.13;;;;;;;;;;5031298;28;20025;-59
2023/09/28 14:27:43;;;;;;;7.75;4.28;;;;;;;;;;5032504;28;20029;-59
2023/09/28 14:30:09;;;;;;;6.97;4.70;;;;;;;;;;5032745;28;20036;-59
2023/09/28 14:32:35;;;;;;;5.28;3.83;;;;;;;;;;5032605;28;20026;-59
2023/09/28 14:35:01;;;;;;;7.28;4.70;;;;;;;;;;5032734;28;20386;-59
2023/09/28 14:37:26;;;;;;;4.30;3.53;;;;;;;;;;5032775;28;20097;-59